sensor_id;sensor_type;location;lat;lon;timestamp;temperature;humidity
8662;DHT22;29684;47.722;9.388;2023-10-08T00:12:05;13.10;99.90
8662;DHT22;29684;47.722;9.388;2023-10-08T00:14:49;12.00;99.90
8662;DHT22;29684;47.722;9.388;2023-10-08T00:17:33;11.80;99.90
8662;DHT22;29684;47.722;9.388;2023-10-08T00:20:17;11.60;99.90
8662;DHT22;29684;47.722;9.388;2023-10-08T00:23:09;11.40;99.90
8662;DHT22;29684;47.722;9.388;2023-10-08T00:25:54;11.20;99.90
8662;DHT22;29684;47.722;9.388;2023-10-08T00:28:42;11.50;99.90
8662;DHT22;29684;47.722;9.388;2023-10-08T00:31:27;11.60;99.90
8662;DHT22;29684;47.722;9.388;2023-10-08T00:34:19;11.50;99.90
8662;DHT22;29684;47.722;9.388;2023-10-08T00:37:04;11.50;99.90
8662;DHT22;29684;47.722;9.388;2023-10-08T00:39:53;11.50;99.90
8662;DHT22;29684;47.722;9.388;2023-10-08T00:42:41;11.40;99.90
8662;DHT22;29684;47.722;9.388;2023-10-08T00:45:30;11.40;99.90
8662;DHT22;29684;47.722;9.388;2023-10-08T00:48:15;11.40;99.90
8662;DHT22;29684;47.722;9.388;2023-10-08T00:51:02;11.40;99.90
8662;DHT22;29684;47.722;9.388;2023-10-08T00:54:19;11.50;99.90
8662;DHT22;29684;47.722;9.388;2023-10-08T00:57:04;11.60;99.90
8662;DHT22;29684;47.722;9.388;2023-10-08T00:59:49;11.50;99.90
8662;DHT22;29684;47.722;9.388;2023-10-08T01:02:37;11.50;99.90
8662;DHT22;29684;47.722;9.388;2023-10-08T01:05:32;11.40;99.90
8662;DHT22;29684;47.722;9.388;2023-10-08T01:08:31;11.50;99.90
8662;DHT22;29684;47.722;9.388;2023-10-08T01:11:24;11.50;99.90
8662;DHT22;29684;47.722;9.388;2023-10-08T01:14:31;11.40;99.90
8662;DHT22;29684;47.722;9.388;2023-10-08T01:17:17;11.40;99.90
8662;DHT22;29684;47.722;9.388;2023-10-08T01:20:04;11.30;99.90
8662;DHT22;29684;47.722;9.388;2023-10-08T01:23:10;11.30;99.90
8662;DHT22;29684;47.722;9.388;2023-10-08T01:25:54;11.30;99.90
8662;DHT22;29684;47.722;9.388;2023-10-08T01:28:59;11.30;99.90
8662;DHT22;29684;47.722;9.388;2023-10-08T01:31:51;11.20;99.90
8662;DHT22;29684;47.722;9.388;2023-10-08T01:34:37;11.20;99.90
8662;DHT22;29684;47.722;9.388;2023-10-08T01:37:22;11.30;99.90
8662;DHT22;29684;47.722;9.388;2023-10-08T01:40:07;11.40;99.90
8662;DHT22;29684;47.722;9.388;2023-10-08T01:42:52;11.30;99.90
8662;DHT22;29684;47.722;9.388;2023-10-08T01:45:37;11.10;99.90
8662;DHT22;29684;47.722;9.388;2023-10-08T01:48:25;11.00;99.90
8662;DHT22;29684;47.722;9.388;2023-10-08T01:51:15;11.00;99.90
8662;DHT22;29684;47.722;9.388;2023-10-08T01:54:08;11.00;99.90
8662;DHT22;29684;47.722;9.388;2023-10-08T01:56:55;11.10;99.90
8662;DHT22;29684;47.722;9.388;2023-10-08T01:59:40;11.00;99.90
8662;DHT22;29684;47.722;9.388;2023-10-08T02:02:24;11.00;99.90
8662;DHT22;29684;47.722;9.388;2023-10-08T02:05:08;10.90;99.90
8662;DHT22;29684;47.722;9.388;2023-10-08T02:07:53;11.00;99.90
8662;DHT22;29684;47.722;9.388;2023-10-08T02:10:41;11.50;99.90
8662;DHT22;29684;47.722;9.388;2023-10-08T02:13:27;11.70;99.90
8662;DHT22;29684;47.722;9.388;2023-10-08T02:16:11;11.50;99.90
8662;DHT22;29684;47.722;9.388;2023-10-08T02:18:55;11.30;99.90
8662;DHT22;29684;47.722;9.388;2023-10-08T02:21:40;11.20;99.90
8662;DHT22;29684;47.722;9.388;2023-10-08T02:24:25;11.20;99.90
8662;DHT22;29684;47.722;9.388;2023-10-08T02:27:09;11.10;99.90
8662;DHT22;29684;47.722;9.388;2023-10-08T02:29:54;11.20;99.90
8662;DHT22;29684;47.722;9.388;2023-10-08T02:32:39;10.90;99.90
8662;DHT22;29684;47.722;9.388;2023-10-08T02:35:26;10.80;99.90
8662;DHT22;29684;47.722;9.388;2023-10-08T02:38:12;10.80;99.90
8662;DHT22;29684;47.722;9.388;2023-10-08T02:41:02;10.70;99.90
8662;DHT22;29684;47.722;9.388;2023-10-08T02:43:50;10.70;99.90
8662;DHT22;29684;47.722;9.388;2023-10-08T02:46:34;10.70;99.90
8662;DHT22;29684;47.722;9.388;2023-10-08T02:49:21;10.80;99.90
8662;DHT22;29684;47.722;9.388;2023-10-08T02:52:09;10.80;99.90
8662;DHT22;29684;47.722;9.388;2023-10-08T02:54:53;10.70;99.90
8662;DHT22;29684;47.722;9.388;2023-10-08T02:57:37;10.70;99.90
8662;DHT22;29684;47.722;9.388;2023-10-08T03:00:21;10.60;99.90
8662;DHT22;29684;47.722;9.388;2023-10-08T03:03:14;10.80;99.90
8662;DHT22;29684;47.722;9.388;2023-10-08T03:06:02;10.70;99.90
8662;DHT22;29684;47.722;9.388;2023-10-08T03:08:47;10.60;99.90
8662;DHT22;29684;47.722;9.388;2023-10-08T03:11:32;10.60;99.90
8662;DHT22;29684;47.722;9.388;2023-10-08T03:14:17;10.70;99.90
8662;DHT22;29684;47.722;9.388;2023-10-08T03:17:07;10.50;99.90
8662;DHT22;29684;47.722;9.388;2023-10-08T03:19:51;10.50;99.90
8662;DHT22;29684;47.722;9.388;2023-10-08T03:22:36;10.60;99.90
8662;DHT22;29684;47.722;9.388;2023-10-08T03:25:22;10.50;99.90
8662;DHT22;29684;47.722;9.388;2023-10-08T03:28:09;10.40;99.90
8662;DHT22;29684;47.722;9.388;2023-10-08T03:30:56;10.40;99.90
8662;DHT22;29684;47.722;9.388;2023-10-08T03:33:57;10.50;99.90
8662;DHT22;29684;47.722;9.388;2023-10-08T03:36:42;10.40;99.90
8662;DHT22;29684;47.722;9.388;2023-10-08T03:39:30;10.30;99.90
8662;DHT22;29684;47.722;9.388;2023-10-08T03:42:34;10.30;99.90
8662;DHT22;29684;47.722;9.388;2023-10-08T03:45:19;10.40;99.90
8662;DHT22;29684;47.722;9.388;2023-10-08T03:48:22;10.50;99.90
8662;DHT22;29684;47.722;9.388;2023-10-08T03:51:06;10.20;99.90
8662;DHT22;29684;47.722;9.388;2023-10-08T03:53:51;10.20;99.90
8662;DHT22;29684;47.722;9.388;2023-10-08T03:56:53;10.30;99.90
8662;DHT22;29684;47.722;9.388;2023-10-08T03:59:37;10.30;99.90
8662;DHT22;29684;47.722;9.388;2023-10-08T04:02:25;10.30;99.90
8662;DHT22;29684;47.722;9.388;2023-10-08T04:05:23;10.20;99.90
8662;DHT22;29684;47.722;9.388;2023-10-08T04:08:11;10.50;99.90
8662;DHT22;29684;47.722;9.388;2023-10-08T04:11:05;10.50;99.90
8662;DHT22;29684;47.722;9.388;2023-10-08T04:13:55;10.50;99.90
8662;DHT22;29684;47.722;9.388;2023-10-08T04:16:44;10.50;99.90
8662;DHT22;29684;47.722;9.388;2023-10-08T04:19:29;10.30;99.90
8662;DHT22;29684;47.722;9.388;2023-10-08T04:22:13;10.40;99.90
8662;DHT22;29684;47.722;9.388;2023-10-08T04:25:00;10.30;99.90
8662;DHT22;29684;47.722;9.388;2023-10-08T04:27:49;10.20;99.90
8662;DHT22;29684;47.722;9.388;2023-10-08T04:30:35;10.40;99.90
8662;DHT22;29684;47.722;9.388;2023-10-08T04:33:19;10.40;99.90
8662;DHT22;29684;47.722;9.388;2023-10-08T04:36:03;10.20;99.90
8662;DHT22;29684;47.722;9.388;2023-10-08T04:38:51;10.20;99.90
8662;DHT22;29684;47.722;9.388;2023-10-08T04:41:42;10.20;99.90
8662;DHT22;29684;47.722;9.388;2023-10-08T04:44:27;10.30;99.90
8662;DHT22;29684;47.722;9.388;2023-10-08T04:47:14;10.10;99.90
8662;DHT22;29684;47.722;9.388;2023-10-08T04:50:15;10.10;99.90
8662;DHT22;29684;47.722;9.388;2023-10-08T04:53:03;10.00;99.90
8662;DHT22;29684;47.722;9.388;2023-10-08T04:55:51;9.90;99.90
8662;DHT22;29684;47.722;9.388;2023-10-08T04:58:40;10.10;99.90
8662;DHT22;29684;47.722;9.388;2023-10-08T05:01:24;9.90;99.90
8662;DHT22;29684;47.722;9.388;2023-10-08T05:04:21;10.10;99.90
8662;DHT22;29684;47.722;9.388;2023-10-08T05:07:10;10.00;99.90
8662;DHT22;29684;47.722;9.388;2023-10-08T05:10:24;9.90;99.90
8662;DHT22;29684;47.722;9.388;2023-10-08T05:13:08;9.80;99.90
8662;DHT22;29684;47.722;9.388;2023-10-08T05:15:55;9.80;99.90
8662;DHT22;29684;47.722;9.388;2023-10-08T05:19:17;9.80;99.90
8662;DHT22;29684;47.722;9.388;2023-10-08T05:22:21;9.80;99.90
8662;DHT22;29684;47.722;9.388;2023-10-08T05:25:05;9.90;99.90
8662;DHT22;29684;47.722;9.388;2023-10-08T05:27:53;10.00;99.90
8662;DHT22;29684;47.722;9.388;2023-10-08T05:30:37;10.00;99.90
8662;DHT22;29684;47.722;9.388;2023-10-08T05:33:22;10.00;99.90
8662;DHT22;29684;47.722;9.388;2023-10-08T05:36:09;10.10;99.90
8662;DHT22;29684;47.722;9.388;2023-10-08T05:39:04;9.90;99.90
8662;DHT22;29684;47.722;9.388;2023-10-08T05:42:09;9.80;99.90
8662;DHT22;29684;47.722;9.388;2023-10-08T05:45:15;9.80;99.90
8662;DHT22;29684;47.722;9.388;2023-10-08T05:48:13;9.60;99.90
8662;DHT22;29684;47.722;9.388;2023-10-08T05:51:06;9.70;99.90
8662;DHT22;29684;47.722;9.388;2023-10-08T05:53:57;9.80;99.90
8662;DHT22;29684;47.722;9.388;2023-10-08T05:56:42;9.80;99.90
8662;DHT22;29684;47.722;9.388;2023-10-08T05:59:48;9.80;99.90
8662;DHT22;29684;47.722;9.388;2023-10-08T06:02:42;9.90;99.90
8662;DHT22;29684;47.722;9.388;2023-10-08T06:05:29;9.90;99.90
8662;DHT22;29684;47.722;9.388;2023-10-08T06:08:29;10.10;99.90
8662;DHT22;29684;47.722;9.388;2023-10-08T06:11:37;10.20;99.90
8662;DHT22;29684;47.722;9.388;2023-10-08T06:14:28;10.40;99.90
8662;DHT22;29684;47.722;9.388;2023-10-08T06:17:26;10.50;99.90
8662;DHT22;29684;47.722;9.388;2023-10-08T06:20:42;10.50;99.90
8662;DHT22;29684;47.722;9.388;2023-10-08T06:23:28;10.40;99.90
8662;DHT22;29684;47.722;9.388;2023-10-08T06:26:19;10.40;99.90
8662;DHT22;29684;47.722;9.388;2023-10-08T06:29:05;10.30;99.90
8662;DHT22;29684;47.722;9.388;2023-10-08T06:32:02;10.10;99.90
8662;DHT22;29684;47.722;9.388;2023-10-08T06:34:46;10.00;99.90
8662;DHT22;29684;47.722;9.388;2023-10-08T06:37:31;10.00;99.90
8662;DHT22;29684;47.722;9.388;2023-10-08T06:40:18;9.90;99.90
8662;DHT22;29684;47.722;9.388;2023-10-08T06:43:32;10.00;99.90
8662;DHT22;29684;47.722;9.388;2023-10-08T06:46:18;10.20;99.90
8662;DHT22;29684;47.722;9.388;2023-10-08T06:49:07;10.30;99.90
8662;DHT22;29684;47.722;9.388;2023-10-08T06:51:55;10.30;99.90
8662;DHT22;29684;47.722;9.388;2023-10-08T06:54:39;10.40;99.90
8662;DHT22;29684;47.722;9.388;2023-10-08T06:57:24;10.50;99.90
8662;DHT22;29684;47.722;9.388;2023-10-08T07:00:11;10.60;99.90
8662;DHT22;29684;47.722;9.388;2023-10-08T07:03:16;10.80;99.90
8662;DHT22;29684;47.722;9.388;2023-10-08T07:06:01;10.90;99.90
8662;DHT22;29684;47.722;9.388;2023-10-08T07:08:47;11.10;99.90
8662;DHT22;29684;47.722;9.388;2023-10-08T07:11:32;11.10;99.90
8662;DHT22;29684;47.722;9.388;2023-10-08T07:14:18;11.30;99.90
8662;DHT22;29684;47.722;9.388;2023-10-08T07:17:02;11.30;99.90
8662;DHT22;29684;47.722;9.388;2023-10-08T07:19:52;11.40;99.90
8662;DHT22;29684;47.722;9.388;2023-10-08T07:22:37;11.40;99.90
8662;DHT22;29684;47.722;9.388;2023-10-08T07:25:23;11.50;99.90
8662;DHT22;29684;47.722;9.388;2023-10-08T07:28:07;11.50;99.90
8662;DHT22;29684;47.722;9.388;2023-10-08T07:31:01;11.70;99.90
8662;DHT22;29684;47.722;9.388;2023-10-08T07:33:51;11.80;99.90
8662;DHT22;29684;47.722;9.388;2023-10-08T07:36:43;12.00;99.90
8662;DHT22;29684;47.722;9.388;2023-10-08T07:39:27;12.30;99.90
8662;DHT22;29684;47.722;9.388;2023-10-08T07:42:18;12.60;99.90
8662;DHT22;29684;47.722;9.388;2023-10-08T07:45:02;12.80;99.90
8662;DHT22;29684;47.722;9.388;2023-10-08T07:47:48;12.90;99.90
8662;DHT22;29684;47.722;9.388;2023-10-08T07:50:32;13.10;99.90
8662;DHT22;29684;47.722;9.388;2023-10-08T07:53:18;13.40;99.90
8662;DHT22;29684;47.722;9.388;2023-10-08T07:56:02;13.80;99.90
8662;DHT22;29684;47.722;9.388;2023-10-08T07:58:53;13.90;99.90
8662;DHT22;29684;47.722;9.388;2023-10-08T08:01:41;14.10;99.90
8662;DHT22;29684;47.722;9.388;2023-10-08T08:04:28;14.40;99.90
8662;DHT22;29684;47.722;9.388;2023-10-08T08:07:17;14.50;99.90
8662;DHT22;29684;47.722;9.388;2023-10-08T08:10:01;14.60;99.90
8662;DHT22;29684;47.722;9.388;2023-10-08T08:12:48;14.80;99.90
8662;DHT22;29684;47.722;9.388;2023-10-08T08:15:35;15.00;99.90
8662;DHT22;29684;47.722;9.388;2023-10-08T11:26:22;15.20;99.90
8662;DHT22;29684;47.722;9.388;2023-10-08T11:29:16;22.50;99.90
8662;DHT22;29684;47.722;9.388;2023-10-08T11:32:10;22.80;99.90
8662;DHT22;29684;47.722;9.388;2023-10-08T11:34:57;23.20;99.90
8662;DHT22;29684;47.722;9.388;2023-10-08T11:37:47;22.80;99.90
8662;DHT22;29684;47.722;9.388;2023-10-08T11:40:42;22.50;99.90
8662;DHT22;29684;47.722;9.388;2023-10-08T11:43:40;22.20;99.90
8662;DHT22;29684;47.722;9.388;2023-10-08T11:49:12;22.30;99.90
8662;DHT22;29684;47.722;9.388;2023-10-08T11:52:02;22.70;99.90
